createdAt,value
2022-08-07T00:02:40.525Z,3.17
2022-08-07T00:05:05.708Z,3.00
2022-08-07T00:07:40.423Z,3.20
2022-08-07T00:10:29.639Z,3.50
2022-08-07T00:13:17.440Z,2.50
2022-08-07T00:15:53.485Z,2.50
2022-08-07T00:18:31.244Z,2.87
2022-08-07T00:21:03.276Z,2.33
2022-08-07T00:23:39.546Z,2.90
2022-08-07T00:26:13.056Z,2.97
2022-08-07T00:28:55.626Z,2.30
2022-08-07T00:31:38.433Z,2.60
2022-08-07T00:34:12.102Z,2.77
2022-08-07T00:36:43.237Z,2.80
2022-08-07T00:39:16.730Z,3.10
2022-08-07T00:41:53.501Z,3.10
2022-08-07T00:44:31.591Z,3.00
2022-08-07T00:47:03.914Z,2.93
2022-08-07T00:50:20.271Z,2.80
2022-08-07T00:52:24.872Z,3.27
2022-08-07T00:54:54.335Z,2.60
2022-08-07T00:57:25.831Z,2.70
2022-08-07T00:59:55.731Z,3.10
2022-08-07T01:02:28.377Z,2.43
2022-08-07T01:04:59.231Z,3.00
2022-08-07T01:07:31.213Z,3.87
2022-08-07T01:10:06.350Z,3.60
2022-08-07T01:12:53.046Z,3.63
2022-08-07T01:16:00.869Z,3.73
2022-08-07T01:18:17.062Z,3.63
2022-08-07T01:20:59.186Z,3.63
2022-08-07T01:23:36.784Z,3.93
2022-08-07T01:26:12.242Z,4.33
2022-08-07T01:28:46.071Z,4.13
2022-08-07T01:31:21.390Z,3.57
2022-08-07T01:33:57.563Z,4.40
2022-08-07T01:36:33.783Z,4.33
2022-08-07T01:39:11.278Z,3.67
2022-08-07T01:42:01.661Z,3.70
2022-08-07T01:44:35.454Z,3.70
2022-08-07T01:47:14.357Z,3.60
2022-08-07T01:49:45.253Z,3.77
2022-08-07T01:52:15.446Z,3.47
2022-08-07T01:54:47.228Z,4.03
2022-08-07T01:57:24.423Z,3.60
2022-08-07T01:59:58.812Z,3.70
2022-08-07T02:03:11.353Z,4.03
2022-08-07T02:05:47.983Z,4.40
2022-08-07T02:08:23.807Z,4.00
2022-08-07T02:10:59.583Z,3.53
2022-08-07T02:13:57.458Z,3.50
2022-08-07T02:16:28.745Z,4.20
2022-08-07T02:19:05.700Z,4.37
2022-08-07T02:21:56.982Z,3.83
2022-08-07T02:24:29.900Z,3.97
2022-08-07T02:27:01.343Z,4.23
2022-08-07T02:29:36.700Z,3.57
2022-08-07T02:32:12.830Z,3.93
2022-08-07T02:34:51.217Z,4.80
2022-08-07T02:37:24.361Z,4.10
2022-08-07T02:40:02.359Z,5.20
2022-08-07T02:42:49.432Z,4.33
2022-08-07T02:45:59.177Z,5.33
2022-08-07T02:48:15.449Z,4.67
2022-08-07T02:50:50.129Z,4.90
2022-08-07T02:53:27.636Z,5.00
2022-08-07T02:56:02.963Z,5.20
2022-08-07T02:58:39.842Z,4.00
2022-08-07T03:01:19.014Z,4.73
2022-08-07T03:04:07.595Z,4.73
2022-08-07T03:06:41.368Z,4.97
2022-08-07T03:09:11.683Z,4.47
2022-08-07T03:11:57.995Z,5.00
2022-08-07T03:14:36.316Z,5.80
2022-08-07T03:17:05.777Z,4.57
2022-08-07T03:19:38.822Z,5.23
2022-08-07T03:22:18.860Z,4.77
2022-08-07T03:24:49.514Z,5.90
2022-08-07T03:27:30.848Z,5.30
2022-08-07T03:30:10.964Z,4.80
2022-08-07T03:32:49.320Z,5.20
2022-08-07T03:35:37.988Z,5.17
2022-08-07T03:38:13.974Z,5.20
2022-08-07T03:40:44.690Z,5.20
2022-08-07T03:43:16.853Z,5.73
2022-08-07T03:45:53.032Z,5.07
2022-08-07T03:48:26.657Z,6.00
2022-08-07T03:51:01.224Z,5.90
2022-08-07T03:54:05.408Z,6.50
2022-08-07T03:56:32.577Z,6.27
2022-08-07T03:59:09.019Z,5.40
2022-08-07T04:01:47.396Z,5.47
2022-08-07T04:04:23.161Z,5.53
2022-08-07T04:06:57.332Z,5.20
2022-08-07T04:09:45.336Z,5.70
2022-08-07T04:12:27.984Z,6.17
2022-08-07T04:15:00.454Z,5.37
2022-08-07T04:18:57.906Z,5.53
2022-08-07T04:20:23.683Z,4.67
2022-08-07T04:23:01.617Z,4.83
2022-08-07T04:25:39.190Z,5.30
2022-08-07T04:28:10.410Z,5.07
2022-08-07T04:30:56.671Z,5.03
2022-08-07T04:33:33.621Z,5.03
2022-08-07T04:36:06.387Z,4.77
2022-08-07T04:38:35.813Z,3.70
2022-08-07T04:41:05.256Z,3.77
2022-08-07T04:44:12.164Z,3.77
2022-08-07T04:46:59.697Z,3.13
2022-08-07T04:49:38.732Z,3.43
2022-08-07T04:52:18.418Z,3.17
2022-08-07T04:54:54.154Z,3.13
2022-08-07T04:58:26.182Z,2.87
2022-08-07T05:00:31.036Z,2.73
2022-08-07T05:03:17.225Z,3.10
2022-08-07T05:06:19.482Z,2.90
2022-08-07T05:09:02.188Z,3.00
2022-08-07T05:11:57.034Z,2.50
2022-08-07T05:14:52.664Z,2.83
2022-08-07T05:17:52.637Z,2.97
2022-08-07T05:20:12.338Z,4.53
2022-08-07T05:22:45.822Z,3.38
2022-08-07T05:25:25.883Z,2.83
2022-08-07T05:28:20.172Z,2.30
2022-08-07T05:30:53.885Z,2.53
2022-08-07T05:33:26.024Z,2.15
2022-08-07T05:35:56.755Z,2.70
2022-08-07T05:39:00.371Z,2.10
2022-08-07T05:41:18.530Z,2.45
2022-08-07T05:44:11.789Z,2.38
2022-08-07T05:46:44.738Z,2.10
2022-08-07T05:49:14.664Z,2.38
2022-08-07T05:51:49.212Z,2.33
2022-08-07T05:54:44.091Z,2.20
2022-08-07T05:57:16.547Z,2.40
2022-08-07T05:59:57.440Z,2.30
2022-08-07T06:02:30.683Z,1.70
2022-08-07T06:05:05.638Z,1.88
2022-08-07T06:08:14.918Z,1.65
2022-08-07T06:10:27.507Z,1.92
2022-08-07T06:12:56.934Z,1.70
2022-08-07T06:15:39.497Z,1.70
2022-08-07T06:18:14.591Z,1.95
2022-08-07T06:20:50.057Z,2.05
2022-08-07T06:24:37.148Z,1.65
2022-08-07T06:26:27.955Z,1.40
2022-08-07T06:29:01.104Z,1.40
2022-08-07T06:31:46.844Z,1.73
2022-08-07T06:34:29.756Z,1.67
2022-08-07T06:37:02.695Z,1.42
2022-08-07T06:40:17.674Z,1.45
2022-08-07T06:42:34.789Z,1.38
2022-08-07T06:45:17.875Z,1.40
2022-08-07T06:47:57.429Z,1.33
2022-08-07T06:50:31.247Z,1.33
2022-08-07T06:53:04.194Z,1.08
2022-08-07T06:56:00.318Z,1.30
2022-08-07T06:58:28.911Z,1.20
2022-08-07T07:01:10.227Z,1.20
2022-08-07T07:03:50.054Z,1.13
2022-08-07T07:06:26.206Z,1.15
2022-08-07T07:08:58.042Z,1.23
2022-08-07T07:12:09.798Z,0.98
2022-08-07T07:14:21.681Z,1.25
2022-08-07T07:16:54.025Z,1.08
2022-08-07T07:19:55.264Z,1.08
2022-08-07T07:22:37.048Z,1.63
2022-08-07T07:26:32.564Z,1.17
2022-08-07T07:28:03.297Z,1.15
2022-08-07T07:30:42.108Z,1.65
2022-08-07T07:33:14.526Z,1.27
2022-08-07T07:36:04.568Z,1.10
2022-08-07T07:38:36.022Z,1.35
2022-08-07T07:41:08.720Z,1.27
2022-08-07T07:44:14.475Z,1.50
2022-08-07T07:46:37.855Z,1.70
2022-08-07T07:50:33.100Z,1.27
2022-08-07T07:52:16.432Z,1.45
2022-08-07T07:54:51.500Z,1.25
2022-08-07T07:57:50.489Z,1.75
2022-08-07T08:00:14.962Z,1.40
2022-08-07T08:03:05.259Z,1.38
2022-08-07T08:05:55.098Z,1.50
2022-08-07T08:08:32.381Z,1.67
2022-08-07T08:11:16.547Z,1.23
2022-08-07T08:13:58.598Z,1.60
2022-08-07T08:16:35.279Z,1.90
2022-08-07T08:19:17.782Z,1.50
2022-08-07T08:22:16.987Z,1.65
2022-08-07T08:25:18.484Z,1.73
2022-08-07T08:27:57.246Z,1.30
2022-08-07T08:30:32.064Z,1.50
2022-08-07T08:33:05.492Z,1.60
2022-08-07T08:35:47.098Z,2.13
2022-08-07T08:38:29.250Z,2.03
2022-08-07T08:41:04.466Z,2.00
2022-08-07T08:43:42.704Z,2.03
2022-08-07T08:46:25.387Z,2.03
2022-08-07T08:48:59.086Z,2.28
2022-08-07T08:52:12.498Z,2.10
2022-08-07T08:54:25.803Z,1.83
2022-08-07T08:56:55.725Z,1.90
2022-08-07T08:59:30.698Z,1.73
2022-08-07T09:02:16.838Z,1.63
2022-08-07T09:05:23.652Z,1.80
2022-08-07T09:08:01.222Z,2.03
2022-08-07T09:10:35.755Z,1.90
2022-08-07T09:13:11.152Z,1.92
2022-08-07T09:16:25.297Z,1.83
2022-08-07T09:18:59.012Z,2.33
2022-08-07T09:22:10.354Z,1.67
2022-08-07T09:24:59.605Z,2.00
2022-08-07T09:27:54.541Z,1.90
2022-08-07T09:30:28.126Z,1.90
2022-08-07T09:33:16.717Z,2.00
2022-08-07T09:36:02.769Z,1.80
2022-08-07T09:38:40.877Z,1.67
2022-08-07T09:41:18.131Z,2.38
2022-08-07T09:44:05.234Z,1.70
2022-08-07T09:47:50.443Z,1.98
2022-08-07T09:50:00.574Z,1.90
2022-08-07T09:52:38.994Z,1.95
2022-08-07T09:55:17.076Z,2.00
2022-08-07T09:58:32.018Z,1.97
2022-08-07T10:01:14.737Z,1.80
2022-08-07T10:04:15.985Z,1.90
2022-08-07T10:06:59.835Z,1.90
2022-08-07T10:09:43.005Z,1.93
2022-08-07T10:13:00.724Z,2.20
2022-08-07T10:15:51.407Z,2.00
2022-08-07T10:18:45.430Z,1.83
2022-08-07T10:22:15.036Z,1.80
2022-08-07T10:24:45.818Z,1.83
2022-08-07T10:27:30.275Z,1.47
2022-08-07T10:30:19.140Z,1.90
2022-08-07T10:33:09.227Z,1.97
2022-08-07T10:36:05.622Z,2.23
2022-08-07T10:38:50.188Z,1.80
2022-08-07T10:41:51.399Z,1.70
2022-08-07T10:44:28.838Z,1.70
2022-08-07T10:47:26.623Z,1.53
2022-08-07T10:50:07.185Z,1.53
2022-08-07T10:52:48.668Z,1.60
2022-08-07T10:55:36.897Z,2.00
2022-08-07T10:58:47.543Z,1.63
2022-08-07T11:01:35.586Z,1.60
2022-08-07T11:04:32.338Z,1.90
2022-08-07T11:07:56.983Z,1.70
2022-08-07T11:10:10.898Z,1.70
2022-08-07T11:12:44.409Z,1.30
2022-08-07T11:15:26.351Z,1.70
2022-08-07T11:18:04.877Z,2.00
2022-08-07T11:20:41.999Z,1.80
2022-08-07T11:23:30.826Z,1.90
2022-08-07T11:26:11.211Z,1.73
2022-08-07T11:28:53.298Z,1.67
2022-08-07T11:31:34.867Z,1.90
2022-08-07T11:34:16.469Z,1.80
2022-08-07T11:36:56.955Z,2.00
2022-08-07T11:39:58.994Z,1.73
2022-08-07T11:42:34.168Z,1.80
2022-08-07T11:45:14.670Z,1.70
2022-08-07T11:48:18.080Z,2.23
2022-08-07T11:51:10.970Z,2.20
2022-08-07T11:54:29.927Z,2.20
2022-08-07T11:57:12.853Z,1.97
2022-08-07T12:00:18.483Z,2.40
2022-08-07T12:03:42.148Z,2.37
2022-08-07T12:06:39.960Z,2.03
2022-08-07T12:09:23.256Z,2.47
2022-08-07T12:12:09.332Z,2.53
2022-08-07T12:14:55.661Z,2.20
2022-08-07T12:17:57.810Z,2.37
2022-08-07T12:20:32.244Z,2.43
2022-08-07T12:24:05.831Z,2.10
2022-08-07T12:26:23.029Z,2.50
2022-08-07T12:29:02.068Z,2.57
2022-08-07T12:31:53.209Z,2.30
2022-08-07T12:34:34.878Z,2.30
2022-08-07T12:37:08.481Z,2.27
2022-08-07T12:39:51.218Z,2.47
2022-08-07T12:42:27.700Z,2.10
2022-08-07T12:44:59.787Z,2.43
2022-08-07T12:47:43.959Z,2.33
2022-08-07T12:50:33.819Z,2.57
2022-08-07T12:53:18.616Z,2.73
2022-08-07T12:56:03.128Z,2.33
2022-08-07T12:58:37.570Z,2.37
2022-08-07T13:01:19.662Z,2.17
2022-08-07T13:04:06.436Z,2.30
2022-08-07T13:07:01.334Z,2.40
2022-08-07T13:10:28.838Z,2.27
2022-08-07T13:12:43.216Z,2.10
2022-08-07T13:15:31.851Z,3.10
2022-08-07T13:18:26.510Z,2.80
2022-08-07T13:21:07.254Z,2.50
2022-08-07T13:24:01.602Z,2.80
2022-08-07T13:26:37.524Z,2.53
2022-08-07T13:29:13.077Z,2.40
2022-08-07T13:31:57.475Z,2.27
2022-08-07T13:34:38.742Z,2.70
2022-08-07T13:37:20.023Z,2.40
2022-08-07T13:40:34.975Z,2.70
2022-08-07T13:42:52.589Z,2.80
2022-08-07T13:46:11.069Z,2.57
2022-08-07T13:48:27.463Z,2.60
2022-08-07T13:51:20.456Z,2.83
2022-08-07T13:54:00.442Z,2.70
2022-08-07T13:56:36.119Z,2.97
2022-08-07T13:59:24.199Z,2.87
2022-08-07T14:02:05.046Z,2.63
2022-08-07T14:04:49.320Z,2.77
2022-08-07T14:07:22.985Z,2.20
2022-08-07T14:10:16.447Z,2.80
2022-08-07T14:12:56.664Z,2.60
2022-08-07T14:15:34.963Z,2.47
2022-08-07T14:18:24.493Z,2.63
2022-08-07T14:21:08.420Z,3.20
2022-08-07T14:24:01.721Z,2.10
2022-08-07T14:26:37.850Z,2.60
2022-08-07T14:30:07.596Z,2.77
2022-08-07T14:32:03.086Z,2.37
2022-08-07T14:34:33.908Z,2.40
2022-08-07T14:37:05.890Z,2.47
2022-08-07T14:40:16.163Z,3.17
2022-08-07T14:43:00.864Z,2.80
2022-08-07T14:45:46.809Z,3.03
2022-08-07T14:48:20.409Z,2.80
2022-08-07T14:50:51.943Z,2.23
2022-08-07T14:56:14.560Z,3.13
2022-08-07T14:58:55.123Z,3.10
2022-08-07T15:01:42.427Z,3.10
2022-08-07T15:04:19.452Z,3.07
2022-08-07T15:06:49.755Z,3.10
2022-08-07T15:09:58.256Z,2.80
2022-08-07T15:12:25.957Z,2.80
2022-08-07T15:15:07.326Z,3.30
2022-08-07T15:17:55.134Z,3.13
2022-08-07T15:20:33.446Z,3.30
2022-08-07T15:23:20.963Z,3.20
2022-08-07T15:25:56.647Z,2.30
2022-08-07T15:31:58.063Z,2.90
2022-08-07T15:34:15.101Z,3.10
2022-08-07T15:37:02.667Z,3.33
2022-08-07T15:45:56.793Z,3.57
2022-08-07T15:48:33.257Z,3.27
2022-08-07T15:51:11.954Z,3.07
2022-08-07T15:53:52.750Z,3.57
2022-08-07T15:56:26.354Z,3.30
2022-08-07T15:58:59.511Z,4.07
2022-08-07T16:01:38.818Z,3.50
2022-08-07T16:04:15.102Z,3.87
2022-08-07T16:06:50.451Z,3.50
2022-08-07T16:09:41.076Z,3.90
2022-08-07T16:12:28.711Z,3.40
2022-08-07T16:15:51.665Z,3.30
2022-08-07T16:18:50.340Z,3.63
2022-08-07T16:22:01.419Z,3.10
2022-08-07T16:24:09.261Z,3.30
2022-08-07T16:27:04.516Z,3.73
2022-08-07T16:30:30.817Z,3.33
2022-08-07T16:34:01.771Z,3.10
2022-08-07T16:36:20.768Z,3.17
2022-08-07T16:39:06.583Z,3.73
2022-08-07T16:42:00.450Z,3.43
2022-08-07T16:45:14.730Z,3.07
2022-08-07T16:47:59.020Z,3.10
2022-08-07T16:50:48.220Z,3.20
2022-08-07T16:54:01.623Z,3.23
2022-08-07T16:56:37.423Z,3.50
2022-08-07T16:59:15.033Z,3.90
2022-08-07T17:02:02.919Z,3.80
2022-08-07T17:04:50.842Z,4.00
2022-08-07T17:07:55.328Z,3.83
2022-08-07T17:10:35.008Z,3.73
2022-08-07T17:13:41.204Z,3.50
2022-08-07T17:16:24.927Z,4.17
2022-08-07T17:19:05.901Z,3.93
2022-08-07T17:21:51.900Z,3.67
2022-08-07T17:24:29.762Z,4.30
2022-08-07T17:27:05.597Z,3.73
2022-08-07T17:30:14.678Z,4.37
2022-08-07T17:33:02.940Z,3.83
2022-08-07T17:35:54.426Z,3.83
2022-08-07T17:38:44.424Z,4.40
2022-08-07T17:42:02.580Z,4.40
2022-08-07T17:44:35.083Z,3.90
2022-08-07T17:47:08.400Z,4.10
2022-08-07T17:49:45.287Z,3.83
2022-08-07T17:52:21.570Z,4.40
2022-08-07T17:55:07.406Z,4.60
2022-08-07T17:57:58.418Z,4.57
2022-08-07T18:00:48.679Z,3.53
2022-08-07T18:03:25.530Z,3.80
2022-08-07T18:06:02.889Z,3.93
2022-08-07T18:09:00.729Z,4.17
2022-08-07T18:12:16.110Z,4.23
2022-08-07T18:14:31.396Z,3.80
2022-08-07T18:17:07.406Z,4.07
2022-08-07T18:21:10.555Z,4.07
2022-08-07T18:22:40.249Z,3.50
2022-08-07T18:25:24.180Z,4.17
2022-08-07T18:28:34.400Z,4.20
2022-08-07T18:31:08.963Z,3.37
2022-08-07T18:34:37.045Z,4.00
2022-08-07T18:38:56.458Z,4.00
2022-08-07T18:40:43.057Z,4.43
2022-08-07T18:43:14.906Z,3.90
2022-08-07T18:46:25.819Z,4.20
2022-08-07T18:50:31.150Z,4.17
2022-08-07T18:52:33.855Z,4.50
2022-08-07T18:54:50.809Z,4.77
2022-08-07T18:57:37.038Z,6.77
2022-08-07T19:00:33.177Z,5.60
2022-08-07T19:03:11.943Z,3.93
2022-08-07T19:06:02.226Z,10.47
2022-08-07T19:08:46.258Z,4.90
2022-08-07T19:11:34.856Z,4.40
2022-08-07T19:14:17.003Z,4.33
2022-08-07T19:17:07.046Z,4.30
2022-08-07T19:19:47.651Z,4.63
2022-08-07T19:22:31.334Z,3.73
2022-08-07T19:25:06.701Z,4.47
2022-08-07T19:28:30.797Z,4.47
2022-08-07T19:31:05.484Z,3.80
2022-08-07T19:33:33.505Z,4.00
2022-08-07T19:36:05.056Z,3.93
2022-08-07T19:38:52.963Z,4.80
2022-08-07T19:41:39.368Z,4.17
2022-08-07T19:44:21.450Z,3.67
2022-08-07T19:46:58.036Z,4.13
2022-08-07T19:49:58.402Z,4.07
2022-08-07T19:52:22.584Z,4.10
2022-08-07T19:54:56.137Z,4.30
2022-08-07T19:58:01.099Z,4.83
2022-08-07T20:00:28.162Z,4.53
2022-08-07T20:03:02.026Z,4.73
2022-08-07T20:06:00.662Z,5.00
2022-08-07T20:08:25.466Z,4.40
2022-08-07T20:11:01.842Z,4.47
2022-08-07T20:13:42.684Z,4.77
2022-08-07T20:16:31.986Z,5.00
2022-08-07T20:19:04.625Z,4.43
2022-08-07T20:21:42.171Z,5.10
2022-08-07T20:24:20.370Z,5.20
2022-08-07T20:26:52.300Z,5.17
2022-08-07T20:29:47.657Z,5.10
2022-08-07T20:32:23.102Z,5.43
2022-08-07T20:34:57.286Z,5.83
2022-08-07T20:37:34.143Z,5.30
2022-08-07T20:40:32.590Z,5.50
2022-08-07T20:43:14.530Z,5.57
2022-08-07T20:46:28.477Z,5.33
2022-08-07T20:48:57.997Z,5.40
2022-08-07T20:51:35.776Z,5.43
2022-08-07T20:54:08.554Z,4.93
2022-08-07T20:56:46.138Z,5.10
2022-08-07T21:00:04.606Z,5.03
2022-08-07T21:02:33.281Z,5.90
2022-08-07T21:05:10.352Z,5.70
2022-08-07T21:07:49.664Z,5.70
2022-08-07T21:10:29.656Z,5.90
2022-08-07T21:13:02.976Z,5.90
2022-08-07T21:15:47.868Z,5.77
2022-08-07T21:18:29.549Z,5.93
2022-08-07T21:21:04.091Z,6.00
2022-08-07T21:23:49.367Z,6.30
2022-08-07T21:26:30.728Z,7.00
2022-08-07T21:29:05.406Z,5.97
2022-08-07T21:32:42.539Z,5.90
2022-08-07T21:34:48.980Z,6.97
2022-08-07T21:37:22.641Z,6.50
2022-08-07T21:39:56.503Z,6.43
2022-08-07T21:42:46.807Z,6.43
2022-08-07T21:46:08.909Z,6.00
2022-08-07T21:48:27.633Z,5.43
2022-08-07T21:51:19.350Z,6.40
2022-08-07T21:53:54.917Z,6.20
2022-08-07T21:56:36.632Z,6.63
2022-08-07T21:59:27.007Z,9.37
2022-08-07T22:02:10.088Z,6.90
2022-08-07T22:04:51.425Z,7.07
2022-08-07T22:07:42.734Z,9.50
2022-08-07T22:10:20.001Z,9.17
2022-08-07T22:12:52.935Z,7.70
2022-08-07T22:16:39.641Z,5.80
2022-08-07T22:18:24.239Z,7.30
2022-08-07T22:20:58.459Z,6.60
2022-08-07T22:23:40.548Z,7.57
2022-08-07T22:26:17.906Z,6.53
2022-08-07T22:28:53.103Z,6.33
2022-08-07T22:31:45.634Z,6.03
2022-08-07T22:34:28.982Z,15.23
2022-08-07T22:37:09.326Z,6.83
2022-08-07T22:39:52.797Z,6.77
2022-08-07T22:42:29.372Z,6.87
2022-08-07T22:45:00.147Z,6.07
2022-08-07T22:47:53.094Z,6.63
2022-08-07T22:50:37.621Z,6.43
2022-08-07T22:54:06.562Z,6.00
2022-08-07T22:56:34.417Z,6.30
2022-08-07T22:59:36.996Z,6.43
2022-08-07T23:02:17.316Z,8.03
2022-08-07T23:06:04.703Z,8.17
2022-08-07T23:07:55.022Z,6.90
2022-08-07T23:10:38.039Z,6.63
2022-08-07T23:13:29.051Z,6.17
2022-08-07T23:16:44.377Z,7.17
2022-08-07T23:19:16.784Z,6.80
2022-08-07T23:21:54.021Z,6.03
2022-08-07T23:24:38.696Z,6.00
2022-08-07T23:27:37.093Z,5.67
2022-08-07T23:30:37.064Z,5.90
2022-08-07T23:34:34.162Z,5.60
2022-08-07T23:36:17.306Z,5.83
2022-08-07T23:39:08.345Z,5.40
2022-08-07T23:42:04.934Z,5.97
2022-08-07T23:45:15.414Z,5.57
2022-08-07T23:48:37.411Z,4.97
2022-08-07T23:52:53.459Z,5.63
2022-08-07T23:54:06.054Z,5.73
2022-08-07T23:56:55.661Z,6.00
